Time;durP1;ratioP1;P1;durP2;ratioP2;P2;SDS_P1;SDS_P2;PMS_P1;PMS_P2;Temp;Humidity;BMP_temperature;BMP_pressure;BME280_temperature;BME280_humidity;BME280_pressure;Samples;Min_cycle;Max_cycle;Signal;HPM_P1;HPM_P2
2022/07/02 00:01:52;;;;;;;5.90;5.40;;;;;;;20.40;71.57;100025.42;213890;1277;140099;-65
2022/07/02 00:06:56;;;;;;;7.70;5.30;;;;;;;20.37;72.03;100018.64;215126;1277;141864;-65
2022/07/02 00:12:02;;;;;;;11.30;4.90;;;;;;;20.37;71.91;100012.62;215659;1276;139788;-66
2022/07/02 00:17:06;;;;;;;5.80;5.30;;;;;;;20.28;71.81;100028.00;215231;1277;141833;-65
2022/07/02 00:22:10;;;;;;;7.40;5.10;;;;;;;20.14;71.85;100018.05;215823;1276;139902;-66
2022/07/02 00:27:17;;;;;;;6.00;5.60;;;;;;;20.06;72.08;100028.58;213544;1277;139349;-66
2022/07/02 00:32:20;;;;;;;;;;;;;;;20.04;72.13;100021.83;214607;1277;141531;-65
2022/07/02 00:37:28;;;;;;;7.70;6.00;;;;;;;20.00;72.24;100032.11;216046;1277;127317;-65
2022/07/02 00:42:31;;;;;;;6.10;5.50;;;;;;;19.99;72.48;100033.02;213351;1277;139472;-66
2022/07/02 00:47:36;;;;;;;7.40;6.50;;;;;;;19.96;72.24;100020.89;213396;1277;141692;-64
2022/07/02 00:52:39;;;;;;;8.20;6.20;;;;;;;19.93;72.47;100021.15;214244;1276;140153;-67
2022/07/02 00:57:48;;;;;;;12.80;6.70;;;;;;;19.89;72.33;100041.23;213775;1276;139451;-66
2022/07/02 01:02:56;;;;;;;16.90;6.90;;;;;;;19.81;72.60;100064.59;212914;1277;140350;-65
2022/07/02 01:13:22;;;;;;;6.70;6.20;;;;;;;19.74;72.83;100072.12;213301;1276;140632;-64
2022/07/02 01:18:26;;;;;;;6.70;6.20;;;;;;;19.73;73.08;100082.89;214152;1276;140486;-67
2022/07/02 01:23:29;;;;;;;6.30;5.70;;;;;;;19.69;73.17;100120.36;212753;1277;141511;-65
2022/07/02 01:28:32;;;;;;;6.30;5.80;;;;;;;19.59;73.24;100120.90;213346;1276;141180;-65
2022/07/02 01:33:34;;;;;;;6.80;6.30;;;;;;;19.57;73.52;100112.86;213537;1276;139337;-63
2022/07/02 01:38:37;;;;;;;6.10;5.60;;;;;;;19.54;73.45;100138.85;212910;1276;210478;-65
2022/07/02 01:43:40;;;;;;;5.60;5.20;;;;;;;19.46;73.68;100139.86;214281;1276;141011;-66
2022/07/02 01:48:43;;;;;;;6.60;5.90;;;;;;;19.43;73.87;100144.31;214737;1276;139331;-64
2022/07/02 01:53:46;;;;;;;8.90;5.00;;;;;;;19.43;73.88;100136.05;215292;1276;140096;-66
2022/07/02 01:58:49;;;;;;;6.70;5.70;;;;;;;19.41;73.81;100140.66;215603;1276;141538;-64
2022/07/02 02:03:52;;;;;;;5.30;4.90;;;;;;;19.41;73.96;100141.95;216024;1276;140826;-65
2022/07/02 02:08:55;;;;;;;4.70;4.20;;;;;;;19.36;73.84;100139.06;213085;1277;140461;-66
2022/07/02 02:14:01;;;;;;;4.30;4.00;;;;;;;19.33;73.83;100132.23;215861;1276;140653;-66
2022/07/02 02:19:04;;;;;;;7.30;6.60;;;;;;;19.32;73.95;100140.88;215863;1276;141274;-64
2022/07/02 02:24:07;;;;;;;8.30;7.50;;;;;;;19.26;74.00;100139.42;213151;1276;140710;-63
2022/07/02 02:29:09;;;;;;;7.60;7.00;;;;;;;19.23;74.02;100143.08;214343;1276;139935;-64
2022/07/02 02:34:13;;;;;;;6.10;5.60;;;;;;;19.13;74.00;100139.09;214397;1276;141596;-66
2022/07/02 02:39:15;;;;;;;8.70;5.70;;;;;;;19.12;74.17;100146.88;213662;1276;140757;-64
2022/07/02 02:44:18;;;;;;;5.70;5.20;;;;;;;19.05;74.04;100154.92;213776;1276;140259;-63
2022/07/02 02:49:22;;;;;;;5.20;4.70;;;;;;;18.94;74.16;100155.80;213242;1276;141921;-63
2022/07/02 02:54:25;;;;;;;5.00;4.60;;;;;;;18.85;74.33;100161.97;213075;1276;141679;-68
2022/07/02 02:59:28;;;;;;;4.90;4.60;;;;;;;18.80;74.47;100169.72;215004;1274;140326;-65
2022/07/02 03:04:31;;;;;;;4.60;4.20;;;;;;;18.76;74.71;100168.76;213018;1279;139904;-64
2022/07/02 03:09:39;;;;;;;5.70;5.20;;;;;;;18.83;74.97;100169.33;213683;1276;140470;-65
2022/07/02 03:14:43;;;;;;;5.90;5.20;;;;;;;18.88;74.93;100177.41;213876;1276;141024;-64
2022/07/02 03:19:46;;;;;;;5.90;5.40;;;;;;;18.83;74.81;100178.94;213592;1276;139647;-66
2022/07/02 03:24:49;;;;;;;5.00;4.20;;;;;;;18.73;74.75;100180.55;214230;1276;141044;-62
2022/07/02 03:29:52;;;;;;;4.50;4.20;;;;;;;18.62;74.86;100195.67;214404;1276;140637;-64
2022/07/02 03:34:56;;;;;;;5.30;4.60;;;;;;;18.58;74.97;100207.23;212887;1276;141159;-64
2022/07/02 03:39:59;;;;;;;5.10;4.70;;;;;;;18.57;75.09;100211.48;214341;1276;140563;-64
2022/07/02 03:45:02;;;;;;;6.30;4.80;;;;;;;18.45;75.11;100210.48;214222;1276;140758;-63
2022/07/02 03:50:05;;;;;;;4.90;4.40;;;;;;;18.31;75.32;100220.97;215167;1276;142541;-65
2022/07/02 03:55:09;;;;;;;4.20;3.80;;;;;;;18.34;75.49;100220.79;213043;1276;141647;-64
2022/07/02 04:00:12;;;;;;;4.60;4.30;;;;;;;18.40;75.54;100224.81;215892;1276;142022;-64
2022/07/02 04:05:15;;;;;;;3.80;3.50;;;;;;;18.40;75.35;100225.73;215639;1276;140856;-64
2022/07/02 04:10:19;;;;;;;4.70;4.30;;;;;;;18.39;75.49;100225.45;214311;1276;145758;-65
2022/07/02 04:15:22;;;;;;;5.80;3.30;;;;;;;18.38;75.62;100226.97;214228;1276;141617;-65
2022/07/02 04:20:26;;;;;;;3.40;3.10;;;;;;;18.30;75.51;100223.56;213510;1276;141668;-64
2022/07/02 04:25:30;;;;;;;5.90;3.50;;;;;;;18.22;75.67;100222.44;215068;1276;142071;-65
2022/07/02 04:30:32;;;;;;;3.60;3.40;;;;;;;18.26;75.79;100226.59;213588;1276;140779;-66
2022/07/02 04:35:37;;;;;;;4.30;3.70;;;;;;;18.31;75.78;100232.14;212918;1276;141813;-65
2022/07/02 04:40:40;;;;;;;5.70;3.20;;;;;;;18.30;75.73;100240.61;214134;1276;140184;-64
2022/07/02 04:45:44;;;;;;;3.00;2.80;;;;;;;18.19;75.41;100238.79;214042;1274;139377;-65
2022/07/02 04:50:48;;;;;;;3.90;3.50;;;;;;;18.04;75.50;100245.18;213385;1276;139797;-66
2022/07/02 04:55:51;;;;;;;3.90;3.30;;;;;;;17.89;75.48;100256.69;214073;1276;140526;-65
2022/07/02 05:00:54;;;;;;;3.60;3.30;;;;;;;17.81;75.70;100264.44;213188;1276;142552;-65
2022/07/02 05:05:57;;;;;;;8.20;3.50;;;;;;;17.77;75.97;100267.78;213567;1276;140866;-65
2022/07/02 05:10:59;;;;;;;4.10;2.90;;;;;;;17.74;76.13;100267.24;213591;1276;143272;-65
2022/07/02 05:16:01;;;;;;;4.10;3.20;;;;;;;17.75;76.42;100272.25;212907;1274;141860;-64
2022/07/02 05:21:05;;;;;;;2.70;2.50;;;;;;;17.81;76.36;100283.59;214379;1277;140976;-65
2022/07/02 05:26:07;;;;;;;2.00;1.90;;;;;;;17.84;76.20;100293.08;213772;1276;141745;-64
2022/07/02 05:31:10;;;;;;;3.50;2.00;;;;;;;17.79;75.93;100307.04;213136;1276;236690;-64
2022/07/02 05:36:13;;;;;;;1.00;1.00;;;;;;;17.73;75.88;100320.15;213022;1276;139501;-67
2022/07/02 05:41:16;;;;;;;0.80;0.80;;;;;;;17.67;75.89;100331.74;213732;1276;141059;-65
2022/07/02 05:46:18;;;;;;;0.60;0.60;;;;;;;17.59;75.77;100341.12;215725;1276;140128;-66
2022/07/02 05:51:21;;;;;;;4.70;0.80;;;;;;;17.53;75.81;100348.65;215705;1275;140205;-67
2022/07/02 05:56:23;;;;;;;0.30;0.30;;;;;;;17.51;75.87;100367.89;215925;1276;141286;-65
2022/07/02 06:01:27;;;;;;;0.50;0.40;;;;;;;17.54;75.69;100367.58;214196;1276;141295;-66
2022/07/02 06:11:50;;;;;;;0.70;0.70;;;;;;;17.61;75.60;100381.30;215781;1276;140843;-66
2022/07/02 06:16:52;;;;;;;3.80;1.10;;;;;;;17.66;75.64;100387.02;213558;1276;139583;-64
2022/07/02 06:21:55;;;;;;;4.00;1.40;;;;;;;17.68;75.39;100389.88;214710;1276;140110;-63
2022/07/02 06:26:58;;;;;;;0.90;0.90;;;;;;;17.73;75.56;100389.23;213392;1276;555458;-65
2022/07/02 06:32:01;;;;;;;0.90;0.80;;;;;;;17.84;75.53;100397.73;213083;1276;140903;-65
2022/07/02 06:37:07;;;;;;;2.90;1.10;;;;;;;17.90;75.26;100415.44;213656;1276;140124;-64
2022/07/02 06:42:19;;;;;;;1.30;1.20;;;;;;;17.90;75.07;100421.05;214257;1276;140220;-62
2022/07/02 06:47:23;;;;;;;1.60;1.40;;;;;;;17.82;74.88;100430.08;213330;1276;139728;-64
2022/07/02 06:52:28;;;;;;;1.30;1.30;;;;;;;17.73;74.88;100435.88;212934;1276;141859;-63
2022/07/02 06:57:32;;;;;;;0.80;0.80;;;;;;;17.78;75.32;100444.04;213375;1276;141358;-64
2022/07/02 07:02:38;;;;;;;1.10;1.10;;;;;;;17.90;75.28;100450.29;212870;1276;141024;-64
2022/07/02 07:07:43;;;;;;;1.50;1.40;;;;;;;18.04;75.26;100455.49;214021;1276;141309;-64
2022/07/02 07:12:46;;;;;;;1.40;1.40;;;;;;;18.11;74.92;100461.17;213667;1276;140385;-65
2022/07/02 07:17:50;;;;;;;1.30;1.30;;;;;;;18.10;74.94;100474.77;213083;1276;139270;-64
2022/07/02 07:22:53;;;;;;;1.30;1.30;;;;;;;18.17;74.87;100479.16;214067;1276;142200;-62
2022/07/02 07:27:56;;;;;;;1.40;1.10;;;;;;;18.41;74.98;100484.77;213968;1276;140520;-64
2022/07/02 07:33:00;;;;;;;0.80;0.80;;;;;;;18.72;74.83;100488.21;214199;1276;140574;-64
2022/07/02 07:38:03;;;;;;;0.70;0.70;;;;;;;18.85;74.12;100496.05;214587;1276;140928;-64
2022/07/02 07:43:05;;;;;;;1.30;1.30;;;;;;;18.92;73.79;100507.13;214469;1275;140405;-64
2022/07/02 07:48:08;;;;;;;0.40;0.40;;;;;;;18.98;73.59;100513.70;213538;1276;141228;-65
2022/07/02 07:53:10;;;;;;;0.50;0.50;;;;;;;18.97;73.16;100516.46;215789;1275;141854;-65
2022/07/02 07:58:13;;;;;;;1.60;0.50;;;;;;;18.93;72.88;100521.18;216100;1276;140210;-65
2022/07/02 08:03:20;;;;;;;0.70;0.60;;;;;;;19.07;72.93;100527.42;215418;1276;142404;-64
2022/07/02 08:08:24;;;;;;;0.30;0.30;;;;;;;19.23;72.66;100531.67;214027;1276;140770;-65
2022/07/02 08:13:28;;;;;;;0.90;0.40;;;;;;;19.55;72.73;100533.42;213396;1276;139743;-63
2022/07/02 08:18:36;;;;;;;0.40;0.40;;;;;;;19.58;72.23;100552.35;214702;1276;139695;-64
2022/07/02 08:23:38;;;;;;;0.70;0.60;;;;;;;19.53;72.17;100560.04;214137;1276;140866;-65
2022/07/02 08:28:43;;;;;;;1.20;0.50;;;;;;;19.55;71.74;100567.02;213394;1276;142967;-64
2022/07/02 08:33:46;;;;;;;0.50;0.50;;;;;;;19.49;71.87;100570.37;213431;1276;140977;-64
2022/07/02 08:38:49;;;;;;;0.90;0.90;;;;;;;19.44;71.76;100571.94;212998;1276;242491;-64
2022/07/02 08:43:55;;;;;;;0.80;0.80;;;;;;;19.35;71.72;100567.13;213096;1274;162275;-64
2022/07/02 08:49:00;;;;;;;0.80;0.80;;;;;;;19.27;71.89;100566.70;213806;1276;141022;-64
2022/07/02 08:54:03;;;;;;;0.80;0.70;;;;;;;19.22;72.01;100573.38;213260;1276;142760;-64
2022/07/02 08:59:08;;;;;;;0.60;0.60;;;;;;;19.14;71.93;100572.98;213994;1276;141369;-66
2022/07/02 09:04:14;;;;;;;0.70;0.70;;;;;;;19.19;72.37;100577.21;212866;1277;141109;-65
2022/07/02 09:09:21;;;;;;;2.40;0.90;;;;;;;19.36;72.17;100584.75;213494;1276;142424;-63
2022/07/02 09:14:27;;;;;;;1.00;1.00;;;;;;;19.58;72.01;100587.98;214729;1276;141819;-64
2022/07/02 09:19:31;;;;;;;0.90;0.90;;;;;;;19.67;71.62;100594.68;213835;1276;140686;-65
2022/07/02 09:24:39;;;;;;;1.70;0.90;;;;;;;19.62;71.11;100605.14;215710;1276;142974;-65
2022/07/02 09:29:54;;;;;;;1.10;1.00;;;;;;;19.53;71.03;100611.00;215392;1276;141626;-65
2022/07/02 09:34:58;;;;;;;0.80;0.80;;;;;;;19.53;70.99;100613.27;215111;1276;141502;-63
2022/07/02 09:40:03;;;;;;;0.90;0.90;;;;;;;19.59;70.88;100610.77;215694;1276;141437;-65
2022/07/02 09:45:10;;;;;;;1.20;1.20;;;;;;;19.70;70.89;100609.94;215820;1276;140027;-65
2022/07/02 09:50:17;;;;;;;0.90;0.90;;;;;;;19.82;70.82;100606.08;215202;1276;140956;-65
2022/07/02 09:55:29;;;;;;;4.20;1.50;;;;;;;19.89;70.46;100614.21;215528;1276;143107;-66
2022/07/02 10:00:42;;;;;;;1.40;1.40;;;;;;;19.84;70.45;100620.63;214828;1276;139841;-65
2022/07/02 10:05:48;;;;;;;2.00;1.60;;;;;;;19.74;70.37;100622.10;214635;1276;140786;-65
2022/07/02 10:10:51;;;;;;;1.70;1.60;;;;;;;19.64;70.39;100626.11;214082;1276;139444;-65
2022/07/02 10:16:03;;;;;;;2.40;1.20;;;;;;;19.62;70.44;100625.84;213415;1276;141834;-65
2022/07/02 10:21:07;;;;;;;1.70;1.60;;;;;;;19.62;70.40;100627.58;213841;1276;140190;-66
2022/07/02 10:26:11;;;;;;;2.80;1.90;;;;;;;19.62;70.65;100628.12;213502;1279;141743;-65
2022/07/02 10:31:19;;;;;;;2.20;1.90;;;;;;;19.61;70.25;100630.23;212664;1279;140253;-64
2022/07/02 10:36:23;;;;;;;2.50;2.40;;;;;;;19.53;70.24;100636.86;214505;1276;140732;-66
2022/07/02 10:41:32;;;;;;;2.30;2.20;;;;;;;19.52;70.08;100636.59;212869;1276;139798;-66
2022/07/02 10:46:36;;;;;;;5.50;2.90;;;;;;;19.56;70.15;100636.91;213018;1276;139498;-65
2022/07/02 10:51:44;;;;;;;4.00;3.50;;;;;;;19.66;70.08;100634.40;213557;1276;139976;-65
2022/07/02 10:56:54;;;;;;;7.70;3.50;;;;;;;19.75;69.96;100631.25;213068;1276;140123;-67
2022/07/02 11:02:08;;;;;;;4.10;3.80;;;;;;;19.83;69.82;100637.24;213857;1274;140490;-66
2022/07/02 11:07:13;;;;;;;3.80;3.50;;;;;;;19.78;69.31;100638.06;213727;1276;139611;-65
2022/07/02 11:12:27;;;;;;;4.50;2.80;;;;;;;19.70;69.30;100638.55;213754;1276;140060;-65
2022/07/02 11:17:36;;;;;;;3.30;3.10;;;;;;;19.63;69.21;100637.96;215342;1276;139517;-66
2022/07/02 11:22:39;;;;;;;3.50;3.10;;;;;;;19.60;69.34;100639.05;213370;1276;139994;-65
2022/07/02 11:27:43;;;;;;;3.10;2.90;;;;;;;19.59;69.42;100641.77;214834;1276;140070;-65
2022/07/02 11:32:45;;;;;;;5.50;3.00;;;;;;;19.50;69.35;100648.52;215691;1276;139020;-65
2022/07/02 11:37:48;;;;;;;4.20;3.80;;;;;;;19.34;69.27;100650.61;215833;1274;139067;-66
2022/07/02 11:42:52;;;;;;;3.20;3.00;;;;;;;19.31;69.34;100651.48;215569;1276;140907;-66
2022/07/02 11:47:56;;;;;;;3.60;3.10;;;;;;;19.29;69.48;100653.84;215908;1276;140276;-66
2022/07/02 11:53:02;;;;;;;3.80;3.50;;;;;;;19.28;69.35;100657.46;215617;1276;141645;-66
2022/07/02 11:58:05;;;;;;;3.20;3.00;;;;;;;19.34;69.58;100656.50;215505;1276;140536;-66
2022/07/02 12:03:11;;;;;;;3.90;3.50;;;;;;;19.46;69.69;100658.40;215505;1275;140689;-66
2022/07/02 12:08:17;;;;;;;4.60;4.20;;;;;;;19.55;69.60;100653.94;213545;1276;142259;-64
2022/07/02 12:13:20;;;;;;;3.00;2.80;;;;;;;19.81;69.66;100650.88;213885;1276;140699;-65
2022/07/02 12:18:24;;;;;;;4.10;3.80;;;;;;;20.24;69.59;100648.70;213124;1276;142623;-65
2022/07/02 12:23:28;;;;;;;4.10;3.80;;;;;;;20.70;69.41;100652.59;212996;1276;141185;-66
2022/07/02 12:33:56;;;;;;;3.80;3.60;;;;;;;20.41;68.03;100654.98;213052;1276;140469;-65
2022/07/02 12:39:00;;;;;;;4.40;4.10;;;;;;;20.17;67.84;100654.89;213888;1276;140552;-63
2022/07/02 12:44:03;;;;;;;3.70;3.50;;;;;;;20.02;68.04;100657.75;213314;1276;140444;-63
2022/07/02 12:49:15;;;;;;;4.40;4.10;;;;;;;20.00;68.22;100660.95;213082;1276;141724;-65
2022/07/02 12:54:18;;;;;;;5.00;4.40;;;;;;;20.16;68.22;100664.86;213720;1276;140879;-64
2022/07/02 12:59:22;;;;;;;5.80;4.70;;;;;;;20.39;67.88;100667.23;213186;1276;141562;-65
2022/07/02 13:04:26;;;;;;;4.50;4.20;;;;;;;20.55;67.88;100670.27;214004;1276;140197;-63
2022/07/02 13:09:34;;;;;;;3.60;3.40;;;;;;;20.75;67.59;100671.09;213869;1276;140906;-63
2022/07/02 13:14:40;;;;;;;4.30;4.00;;;;;;;20.96;67.21;100664.08;214831;1277;141656;-63
2022/07/02 13:19:45;;;;;;;2.90;2.70;;;;;;;21.08;66.72;100662.26;213098;1276;143140;-64
2022/07/02 13:24:48;;;;;;;3.80;3.60;;;;;;;21.26;66.33;100658.04;215247;1276;141251;-65
2022/07/02 13:29:54;;;;;;;3.70;3.50;;;;;;;21.43;66.18;100657.62;215436;1276;140977;-61
2022/07/02 13:34:57;;;;;;;3.10;2.90;;;;;;;21.63;65.94;100652.67;215166;1276;139960;-65
2022/07/02 13:40:04;;;;;;;3.50;3.20;;;;;;;21.82;65.48;100649.00;216013;1276;139749;-65
2022/07/02 13:45:10;;;;;;;3.80;2.90;;;;;;;21.91;64.85;100651.10;215702;1276;140018;-64
2022/07/02 13:50:19;;;;;;;3.60;3.00;;;;;;;21.96;64.63;100654.95;214766;1276;140645;-63
2022/07/02 13:55:25;;;;;;;3.00;2.80;;;;;;;22.04;64.26;100661.56;214084;1276;140598;-63
2022/07/02 14:00:29;;;;;;;3.10;2.90;;;;;;;22.07;64.16;100665.66;214174;1276;140294;-64
2022/07/02 14:05:37;;;;;;;2.40;2.30;;;;;;;22.09;63.89;100666.06;213141;1276;141033;-63
2022/07/02 14:10:43;;;;;;;2.50;2.40;;;;;;;22.14;63.79;100665.09;213158;1276;141004;-64
2022/07/02 14:15:51;;;;;;;2.10;2.00;;;;;;;22.15;63.32;100661.94;213414;1276;141239;-65
2022/07/02 14:21:02;;;;;;;2.90;2.30;;;;;;;22.07;63.35;100663.32;213148;1276;141203;-64
2022/07/02 14:26:06;;;;;;;2.10;2.00;;;;;;;21.88;63.15;100658.90;214054;1276;139320;-64
2022/07/02 14:31:11;;;;;;;2.10;2.00;;;;;;;21.76;63.51;100660.90;213601;1276;140390;-65
2022/07/02 14:36:15;;;;;;;3.60;2.10;;;;;;;21.74;63.41;100657.98;213214;1276;140289;-65
2022/07/02 14:41:32;;;;;;;2.00;1.90;;;;;;;21.74;63.07;100653.36;214408;1276;140297;-64
2022/07/02 14:46:36;;;;;;;2.30;2.20;;;;;;;21.74;63.05;100655.75;214479;1277;139489;-65
2022/07/02 14:51:40;;;;;;;2.50;2.40;;;;;;;21.67;63.51;100656.83;214250;1276;141256;-65
2022/07/02 14:56:48;;;;;;;2.60;2.50;;;;;;;21.43;63.21;100661.48;213960;1276;140326;-65
2022/07/02 15:01:53;;;;;;;2.60;2.40;;;;;;;21.12;63.42;100659.09;213461;1276;140000;-64
2022/07/02 15:06:57;;;;;;;2.60;2.10;;;;;;;20.84;63.73;100654.66;214417;1276;139337;-65
2022/07/02 15:12:02;;;;;;;2.70;2.50;;;;;;;20.65;64.17;100656.24;213958;1276;139508;-64
2022/07/02 15:17:05;;;;;;;4.20;2.70;;;;;;;20.55;64.64;100660.23;215746;1276;140572;-65
2022/07/02 15:22:15;;;;;;;2.70;2.50;;;;;;;20.48;64.78;100658.42;213809;1277;139554;-63
2022/07/02 15:27:20;;;;;;;4.40;2.00;;;;;;;20.44;65.05;100651.52;213174;1274;140324;-64
2022/07/02 15:32:26;;;;;;;2.00;1.90;;;;;;;20.43;65.29;100647.41;215367;1276;139789;-65
2022/07/02 15:37:41;;;;;;;2.00;1.90;;;;;;;20.45;65.44;100644.42;213541;1276;139242;-66
2022/07/02 15:42:45;;;;;;;2.10;2.00;;;;;;;20.48;65.38;100640.83;215733;1276;140910;-66
2022/07/02 15:47:49;;;;;;;3.80;1.80;;;;;;;20.52;65.34;100635.05;214148;1276;139882;-64
2022/07/02 15:53:04;;;;;;;2.20;1.90;;;;;;;20.54;65.30;100631.04;214853;1276;140023;-64
2022/07/02 15:58:21;;;;;;;2.20;2.00;;;;;;;20.59;65.51;100626.08;214106;1276;139642;-66
2022/07/02 16:03:26;;;;;;;1.90;1.80;;;;;;;20.67;65.34;100626.70;212979;1276;140046;-64
2022/07/02 16:08:33;;;;;;;2.40;2.20;;;;;;;20.78;65.35;100616.23;214105;1277;140687;-66
2022/07/02 16:13:37;;;;;;;2.00;1.90;;;;;;;20.87;65.09;100617.02;212921;1279;140210;-65
2022/07/02 16:18:44;;;;;;;1.80;1.70;;;;;;;20.93;64.92;100612.70;213293;1277;141022;-65
2022/07/02 16:23:48;;;;;;;1.70;1.70;;;;;;;20.98;64.63;100608.61;213388;1277;140388;-65
2022/07/02 16:28:51;;;;;;;2.00;1.90;;;;;;;21.01;64.69;100609.52;213076;1277;140010;-66
2022/07/02 16:34:05;;;;;;;2.20;1.80;;;;;;;21.01;64.71;100605.73;213268;1277;139602;-65
2022/07/02 16:39:09;;;;;;;1.70;1.60;;;;;;;21.04;64.60;100605.38;213424;1280;140153;-65
2022/07/02 16:44:13;;;;;;;1.80;1.70;;;;;;;21.10;64.23;100603.30;214787;1277;140873;-65
2022/07/02 16:49:16;;;;;;;2.10;2.00;;;;;;;21.12;64.25;100598.84;213831;1277;139896;-64
2022/07/02 16:54:19;;;;;;;1.90;1.80;;;;;;;21.15;64.29;100602.12;213403;1277;141034;-65
2022/07/02 16:59:22;;;;;;;1.70;1.50;;;;;;;21.16;64.07;100595.11;213131;1277;140593;-64
2022/07/02 17:04:28;;;;;;;2.80;2.10;;;;;;;21.20;64.02;100593.96;213651;1276;139618;-62
2022/07/02 17:09:34;;;;;;;2.40;1.90;;;;;;;21.18;63.77;100592.61;214273;1277;139226;-64
2022/07/02 17:14:38;;;;;;;1.60;1.50;;;;;;;21.22;63.53;100587.45;215958;1277;141101;-63
2022/07/02 17:19:41;;;;;;;2.40;1.60;;;;;;;21.38;63.67;100588.08;215916;1276;139658;-64
2022/07/02 17:24:45;;;;;;;2.10;1.60;;;;;;;21.55;63.54;100588.45;215889;1277;140772;-63
2022/07/02 17:29:48;;;;;;;1.60;1.50;;;;;;;21.71;63.01;100583.39;215723;1277;141196;-62
2022/07/02 17:34:51;;;;;;;2.70;1.50;;;;;;;21.80;62.46;100571.69;215681;1277;140095;-63
2022/07/02 17:39:54;;;;;;;6.10;5.50;;;;;;;21.76;61.91;100566.13;215552;1277;140782;-63
2022/07/02 17:44:57;;;;;;;2.00;1.90;;;;;;;21.65;61.58;100565.92;214526;1277;140179;-63
2022/07/02 17:50:00;;;;;;;2.60;2.00;;;;;;;21.47;62.01;100559.35;213257;1277;140730;-63
2022/07/02 17:55:09;;;;;;;2.70;1.90;;;;;;;21.24;62.73;100558.24;214255;1276;140484;-63
2022/07/02 18:00:17;;;;;;;2.20;1.70;;;;;;;21.02;62.96;100555.23;213090;1277;140982;-63
2022/07/02 18:05:20;;;;;;;1.80;1.70;;;;;;;20.83;63.41;100559.50;214302;1277;142576;-63
2022/07/02 18:10:24;;;;;;;1.90;1.70;;;;;;;20.64;63.72;100562.51;213179;1278;152073;-63
2022/07/02 18:15:28;;;;;;;1.70;1.60;;;;;;;20.39;63.89;100566.23;213987;1276;140180;-64
2022/07/02 18:20:33;;;;;;;1.90;1.80;;;;;;;20.14;64.18;100568.44;213219;1277;142788;-64
2022/07/02 18:25:38;;;;;;;2.10;1.80;;;;;;;19.92;64.47;100566.47;212628;1277;827034;-64
2022/07/02 18:30:42;;;;;;;5.50;2.30;;;;;;;19.70;64.83;100565.52;213988;1276;140219;-64
2022/07/02 18:35:48;;;;;;;;;;;;;;;19.51;65.20;100561.88;213261;1277;140415;-64
2022/07/02 18:40:52;;;;;;;1.90;1.80;;;;;;;19.32;65.76;100558.27;214056;1277;128604;-64
2022/07/02 18:45:57;;;;;;;2.10;1.70;;;;;;;19.14;66.00;100554.83;213931;1276;140992;-64
2022/07/02 18:51:02;;;;;;;2.30;2.20;;;;;;;18.94;66.32;100544.89;213114;1276;140810;-62
2022/07/02 18:56:06;;;;;;;3.00;2.00;;;;;;;18.68;66.74;100544.87;214331;1276;141093;-64
2022/07/02 19:01:10;;;;;;;1.80;1.70;;;;;;;18.54;67.11;100551.25;215087;1276;140553;-64
2022/07/02 19:06:18;;;;;;;1.90;1.80;;;;;;;18.39;67.23;100560.50;215004;1276;141259;-63
2022/07/02 19:11:23;;;;;;;2.80;2.60;;;;;;;18.27;67.60;100558.70;215766;1276;139733;-64
2022/07/02 19:16:26;;;;;;;3.00;2.60;;;;;;;18.16;67.69;100556.38;216082;1276;140552;-64
2022/07/02 19:21:31;;;;;;;1.90;1.80;;;;;;;18.00;67.54;100553.95;216004;1276;208987;-64
2022/07/02 19:32:06;;;;;;;2.30;2.20;;;;;;;17.56;67.78;100556.41;215439;1277;139778;-63
2022/07/02 19:37:15;;;;;;;2.60;2.50;;;;;;;17.31;68.22;100556.19;214953;1276;140069;-64
2022/07/02 19:42:19;;;;;;;2.10;2.00;;;;;;;17.13;68.23;100556.70;212994;1279;141939;-64
2022/07/02 19:47:22;;;;;;;3.80;2.10;;;;;;;16.96;68.58;100562.39;213184;1276;140479;-63
2022/07/02 19:52:25;;;;;;;3.20;2.30;;;;;;;16.81;68.96;100558.59;215010;1276;140609;-65
2022/07/02 19:57:28;;;;;;;2.30;2.20;;;;;;;16.56;69.24;100561.77;213199;1276;140695;-66
2022/07/02 20:02:33;;;;;;;2.40;2.20;;;;;;;16.46;69.53;100556.98;213073;1276;141460;-64
2022/07/02 20:07:36;;;;;;;2.70;2.50;;;;;;;16.37;69.74;100560.02;213163;1276;140737;-63
2022/07/02 20:12:39;;;;;;;4.10;2.40;;;;;;;16.06;69.87;100556.16;212841;1276;163127;-65
2022/07/02 20:17:53;;;;;;;3.20;2.50;;;;;;;15.91;70.49;100546.13;214228;1276;141085;-65
2022/07/02 20:22:59;;;;;;;2.80;2.60;;;;;;;15.89;70.79;100537.67;213234;1276;141667;-63
2022/07/02 20:28:03;;;;;;;3.10;2.80;;;;;;;15.85;70.67;100538.38;213009;1276;141515;-64
2022/07/02 20:33:06;;;;;;;3.20;3.00;;;;;;;15.68;70.80;100542.29;213907;1276;141034;-65
2022/07/02 20:38:09;;;;;;;4.80;3.20;;;;;;;15.46;70.88;100545.39;213082;1276;141715;-66
2022/07/02 20:43:13;;;;;;;3.50;3.20;;;;;;;15.31;71.27;100547.05;213101;1277;143806;-64
2022/07/02 20:48:17;;;;;;;3.10;2.90;;;;;;;15.18;71.57;100546.53;213896;1277;141789;-66
2022/07/02 20:53:21;;;;;;;4.20;3.80;;;;;;;15.12;71.83;100544.06;213074;1276;141418;-64
2022/07/02 20:58:25;;;;;;;4.30;3.70;;;;;;;15.00;72.06;100547.80;213562;1276;139986;-62
2022/07/02 21:03:30;;;;;;;3.90;3.60;;;;;;;14.92;72.12;100557.88;215890;1276;139300;-62
2022/07/02 21:08:32;;;;;;;4.80;3.70;;;;;;;14.94;72.32;100557.75;214851;1276;140119;-62
2022/07/02 21:13:36;;;;;;;3.70;3.20;;;;;;;15.01;72.54;100562.36;215666;1276;140789;-63
2022/07/02 21:18:40;;;;;;;4.40;4.00;;;;;;;15.00;72.46;100559.82;215872;1275;233647;-63
2022/07/02 21:23:45;;;;;;;4.60;4.30;;;;;;;14.82;72.20;100560.23;213000;1275;140953;-62
2022/07/02 21:28:48;;;;;;;5.60;3.90;;;;;;;14.66;72.27;100562.41;215868;1276;139360;-62
2022/07/02 21:33:50;;;;;;;4.60;4.30;;;;;;;14.48;72.12;100565.69;213121;1276;142392;-62
2022/07/02 21:38:53;;;;;;;4.70;4.30;;;;;;;14.33;72.59;100570.95;214500;1276;141697;-60
2022/07/02 21:43:56;;;;;;;6.80;5.10;;;;;;;14.25;72.91;100568.17;214726;1276;141066;-62
2022/07/02 21:49:02;;;;;;;5.90;5.40;;;;;;;14.31;73.46;100561.25;213396;1276;140062;-62
2022/07/02 21:54:05;;;;;;;4.60;4.20;;;;;;;14.33;73.40;100566.12;213830;1276;140870;-62
2022/07/02 21:59:09;;;;;;;9.80;5.90;;;;;;;14.32;73.50;100560.27;213794;1276;151902;-63
2022/07/02 22:04:14;;;;;;;7.00;5.50;;;;;;;14.24;72.93;100562.09;213159;1276;139566;-63
2022/07/02 22:09:20;;;;;;;13.90;5.20;;;;;;;14.01;72.94;100562.10;213167;1276;139900;-61
2022/07/02 22:14:24;;;;;;;4.50;4.20;;;;;;;13.90;73.53;100561.07;212891;1276;140659;-64
2022/07/02 22:19:26;;;;;;;5.80;5.40;;;;;;;13.82;73.35;100561.02;213657;1276;140253;-63
2022/07/02 22:24:30;;;;;;;6.10;5.50;;;;;;;13.74;73.52;100570.59;212929;1277;139853;-63
2022/07/02 22:29:34;;;;;;;7.70;5.70;;;;;;;13.65;73.46;100573.08;213353;1276;141245;-62
2022/07/02 22:34:38;;;;;;;6.30;5.50;;;;;;;13.56;74.11;100581.23;213360;1276;139310;-64
2022/07/02 22:39:42;;;;;;;8.00;6.20;;;;;;;13.56;74.15;100579.04;214848;1275;139946;-64
2022/07/02 22:44:46;;;;;;;6.60;5.90;;;;;;;13.52;74.04;100578.24;213004;1276;140812;-63
2022/07/02 22:49:51;;;;;;;6.40;6.00;;;;;;;13.37;73.86;100571.85;213266;1276;139769;-63
2022/07/02 22:54:57;;;;;;;5.50;5.00;;;;;;;13.21;74.26;100565.80;215003;1276;140656;-65
2022/07/02 23:00:05;;;;;;;7.60;6.80;;;;;;;13.18;74.71;100560.37;213483;1276;140244;-62
2022/07/02 23:05:09;;;;;;;11.00;5.60;;;;;;;13.26;74.78;100557.86;215290;1276;140482;-63
2022/07/02 23:10:12;;;;;;;5.80;5.30;;;;;;;13.23;74.38;100553.20;214476;1276;140767;-63
2022/07/02 23:15:15;;;;;;;6.60;5.10;;;;;;;13.10;74.58;100555.46;215725;1276;140951;-64
2022/07/02 23:20:19;;;;;;;11.10;6.90;;;;;;;12.98;74.15;100560.27;215890;1276;139710;-65
2022/07/02 23:25:22;;;;;;;8.30;5.90;;;;;;;12.91;74.79;100557.33;215409;1276;140014;-64